createdAt,value
2023-03-13T00:01:36.734Z,150409.13
2023-03-13T00:04:03.319Z,150402.81
2023-03-13T00:06:35.462Z,150387.66
2023-03-13T00:09:02.810Z,150395.22
2023-03-13T00:11:29.204Z,150399.03
2023-03-13T00:13:56.129Z,150391.44
2023-03-13T00:16:22.333Z,150416.72
2023-03-13T00:18:50.763Z,150423.00
2023-03-13T00:21:18.224Z,150430.56
2023-03-13T00:23:44.977Z,150462.13
2023-03-13T00:26:13.737Z,150439.41
2023-03-13T00:28:41.073Z,150436.91
2023-03-13T00:31:13.142Z,150443.19
2023-03-13T00:33:43.737Z,150430.56
2023-03-13T00:36:18.029Z,150419.22
2023-03-13T00:38:44.688Z,150411.63
2023-03-13T00:41:12.912Z,150424.25
2023-03-13T00:43:40.890Z,150429.31
2023-03-13T00:46:07.498Z,150435.63
2023-03-13T00:48:33.933Z,150417.97
2023-03-13T00:51:01.012Z,150417.97
2023-03-13T00:53:27.296Z,150439.41
2023-03-13T00:55:56.789Z,150430.56
2023-03-13T00:58:24.030Z,150454.56
2023-03-13T01:00:50.436Z,150463.38
2023-03-13T01:03:16.528Z,150454.56
2023-03-13T01:05:42.642Z,150434.38
2023-03-13T01:08:08.716Z,150448.22
2023-03-13T01:10:34.701Z,150438.16
2023-03-13T01:13:01.007Z,150438.16
2023-03-13T01:15:26.783Z,150429.31
2023-03-13T01:17:52.674Z,150430.56
2023-03-13T01:20:18.443Z,150428.03
2023-03-13T01:22:44.259Z,150426.78
2023-03-13T01:25:10.138Z,150419.22
2023-03-13T01:27:35.906Z,150421.75
2023-03-13T01:30:01.767Z,150412.88
2023-03-13T01:32:27.588Z,150433.06
2023-03-13T01:34:53.405Z,150411.63
2023-03-13T01:37:19.199Z,150431.81
2023-03-13T01:39:44.980Z,150420.50
2023-03-13T01:42:10.767Z,150416.72
2023-03-13T01:44:51.504Z,150405.34
2023-03-13T01:47:17.485Z,150395.22
2023-03-13T01:49:44.500Z,150382.63
2023-03-13T01:52:16.270Z,150381.38
2023-03-13T01:54:51.075Z,150372.53
2023-03-13T01:57:29.117Z,150339.69
2023-03-13T02:00:01.397Z,150348.56
2023-03-13T02:02:28.820Z,150334.66
2023-03-13T02:05:00.190Z,150328.38
2023-03-13T02:07:50.032Z,150318.25
2023-03-13T02:10:17.589Z,150332.16
2023-03-13T02:12:44.249Z,150324.56
2023-03-13T02:15:16.934Z,150313.22
2023-03-13T02:17:44.589Z,150313.22
2023-03-13T02:20:12.498Z,150320.78
2023-03-13T02:23:25.670Z,150329.63
2023-03-13T02:25:52.973Z,150325.81
2023-03-13T02:28:32.994Z,150339.69
2023-03-13T02:31:00.251Z,150330.91
2023-03-13T02:33:33.132Z,150357.38
2023-03-13T02:36:01.467Z,150348.56
2023-03-13T02:38:30.071Z,150356.09
2023-03-13T02:40:58.604Z,150363.72
2023-03-13T02:43:30.279Z,150364.97
2023-03-13T02:46:16.677Z,150371.25
2023-03-13T02:48:45.020Z,150385.16
2023-03-13T02:51:28.879Z,150376.28
2023-03-13T02:53:59.781Z,150385.16
2023-03-13T02:56:27.619Z,150400.31
2023-03-13T02:58:53.497Z,150381.38
2023-03-13T03:01:19.432Z,150400.31
2023-03-13T03:03:45.969Z,150415.41
2023-03-13T03:06:12.019Z,150404.06
2023-03-13T03:08:40.674Z,150406.59
2023-03-13T03:11:07.075Z,150411.63
2023-03-13T03:13:33.291Z,150411.63
2023-03-13T03:15:59.279Z,150412.88
2023-03-13T03:18:25.214Z,150406.59
2023-03-13T03:20:51.097Z,150412.88
2023-03-13T03:23:16.946Z,150406.59
2023-03-13T03:25:43.095Z,150445.72
2023-03-13T03:28:08.956Z,150430.56
2023-03-13T03:30:34.804Z,150436.91
2023-03-13T03:33:02.355Z,150439.41
2023-03-13T03:35:28.167Z,150443.19
2023-03-13T03:37:54.052Z,150440.69
2023-03-13T03:40:20.727Z,150443.19
2023-03-13T03:42:47.009Z,150445.72
2023-03-13T03:45:13.049Z,150443.19
2023-03-13T03:47:38.944Z,150459.59
2023-03-13T03:50:06.923Z,150478.53
2023-03-13T03:52:32.718Z,150457.09
2023-03-13T03:54:58.536Z,150444.47
2023-03-13T03:57:24.470Z,150486.09
2023-03-13T03:59:50.355Z,150479.78
2023-03-13T04:02:17.011Z,150484.84
2023-03-13T04:04:42.878Z,150483.56
2023-03-13T04:07:08.744Z,150493.69
2023-03-13T04:09:34.571Z,150483.56
2023-03-13T04:12:00.376Z,150474.75
2023-03-13T04:14:26.145Z,150489.91
2023-03-13T04:16:51.997Z,150491.19
2023-03-13T04:19:17.902Z,150503.75
2023-03-13T04:21:43.821Z,150500.00
2023-03-13T04:24:09.696Z,150525.25
2023-03-13T04:26:35.565Z,150521.44
2023-03-13T04:29:01.389Z,150527.78
2023-03-13T04:31:27.277Z,150545.47
2023-03-13T04:33:53.232Z,150526.53
2023-03-13T04:36:19.096Z,150536.59
2023-03-13T04:38:44.965Z,150544.19
2023-03-13T04:41:10.835Z,150546.72
2023-03-13T04:43:36.630Z,150534.06
2023-03-13T04:46:02.440Z,150550.50
2023-03-13T04:48:28.344Z,150561.88
2023-03-13T04:50:54.233Z,150559.31
2023-03-13T04:53:20.301Z,150556.78
2023-03-13T04:55:47.150Z,150563.13
2023-03-13T04:58:13.009Z,150563.13
2023-03-13T05:00:42.277Z,150582.06
2023-03-13T05:03:08.139Z,150578.28
2023-03-13T05:05:34.828Z,150608.56
2023-03-13T05:08:01.271Z,150597.22
2023-03-13T05:10:27.616Z,150604.78
2023-03-13T05:12:53.558Z,150622.47
2023-03-13T05:15:19.338Z,150609.81
2023-03-13T05:17:45.168Z,150616.16
2023-03-13T05:20:11.470Z,150642.66
2023-03-13T05:22:38.072Z,150651.53
2023-03-13T05:25:05.190Z,150650.28
2023-03-13T05:27:31.746Z,150654.06
2023-03-13T05:29:57.612Z,150650.28
2023-03-13T05:32:23.542Z,150669.22
2023-03-13T05:34:49.389Z,150680.56
2023-03-13T05:37:15.333Z,150660.34
2023-03-13T05:39:41.350Z,150671.75
2023-03-13T05:42:07.300Z,150684.34
2023-03-13T05:44:33.224Z,150693.19
2023-03-13T05:46:59.060Z,150702.03
2023-03-13T05:49:24.943Z,150715.94
2023-03-13T05:51:50.772Z,150714.66
2023-03-13T05:54:16.629Z,150727.31
2023-03-13T05:56:44.166Z,150734.88
2023-03-13T05:59:10.439Z,150722.28
2023-03-13T06:01:36.660Z,150748.78
2023-03-13T06:04:02.796Z,150739.97
2023-03-13T06:06:28.837Z,150746.25
2023-03-13T06:08:54.808Z,150747.50
2023-03-13T06:11:20.774Z,150771.50
2023-03-13T06:13:46.642Z,150767.72
2023-03-13T06:16:12.555Z,150774.03
2023-03-13T06:18:38.465Z,150779.13
2023-03-13T06:21:04.519Z,150780.38
2023-03-13T06:23:30.392Z,150791.72
2023-03-13T06:25:56.648Z,150801.84
2023-03-13T06:28:22.537Z,150806.88
2023-03-13T06:30:48.463Z,150789.19
2023-03-13T06:33:14.437Z,150798.06
2023-03-13T06:35:55.127Z,150786.69
2023-03-13T06:38:23.996Z,150814.50
2023-03-13T06:40:49.964Z,150828.34
2023-03-13T06:43:15.948Z,150842.28
2023-03-13T06:45:41.819Z,150852.41
2023-03-13T06:48:07.617Z,150833.44
2023-03-13T06:50:37.848Z,150835.97
2023-03-13T06:53:03.758Z,150873.88
2023-03-13T06:55:29.625Z,150862.47
2023-03-13T06:57:55.463Z,150889.09
2023-03-13T07:00:21.931Z,150892.88
2023-03-13T07:02:47.750Z,150897.91
2023-03-13T07:05:14.306Z,150914.34
2023-03-13T07:07:41.166Z,150910.56
2023-03-13T07:10:09.758Z,150896.66
2023-03-13T07:12:36.866Z,150914.34
2023-03-13T07:15:04.225Z,150933.31
2023-03-13T07:17:30.248Z,150934.56
2023-03-13T07:19:56.100Z,150954.78
2023-03-13T07:22:22.069Z,150963.66
2023-03-13T07:24:48.319Z,150972.50
2023-03-13T07:27:16.610Z,150971.22
2023-03-13T07:29:42.549Z,150982.63
2023-03-13T07:32:08.468Z,150981.38
2023-03-13T07:34:34.400Z,150997.81
2023-03-13T07:37:00.283Z,150977.59
2023-03-13T07:39:26.121Z,150983.88
2023-03-13T07:41:51.979Z,150976.31
2023-03-13T07:44:18.378Z,150988.94
2023-03-13T07:46:44.340Z,150972.50
2023-03-13T07:49:10.237Z,150985.16
2023-03-13T07:51:43.652Z,151020.56
2023-03-13T07:54:10.395Z,151031.94
2023-03-13T07:56:36.424Z,151030.69
2023-03-13T07:59:02.197Z,151020.56
2023-03-13T08:01:30.693Z,151025.59
2023-03-13T08:03:57.950Z,151030.69
2023-03-13T08:06:25.563Z,151053.44
2023-03-13T08:08:52.863Z,151071.13
2023-03-13T08:11:21.107Z,151073.66
2023-03-13T08:13:49.144Z,151101.50
2023-03-13T08:16:17.480Z,151093.88
2023-03-13T08:18:45.862Z,151133.09
2023-03-13T08:21:14.626Z,151154.63
2023-03-13T08:23:41.000Z,151165.97
2023-03-13T08:26:08.487Z,151147.00
2023-03-13T08:28:35.478Z,151179.91
2023-03-13T08:31:19.818Z,151171.03
2023-03-13T08:33:47.247Z,151144.47
2023-03-13T08:36:17.468Z,151126.78
2023-03-13T08:38:46.178Z,151153.38
2023-03-13T08:41:21.431Z,151165.97
2023-03-13T08:43:47.914Z,151174.84
2023-03-13T08:46:14.744Z,151190.03
2023-03-13T08:48:41.329Z,151191.31
2023-03-13T08:51:13.875Z,151191.31
2023-03-13T08:53:41.933Z,151196.34
2023-03-13T08:56:12.446Z,151220.38
2023-03-13T08:58:38.665Z,151220.38
2023-03-13T09:01:07.358Z,151207.75
2023-03-13T09:03:34.028Z,151207.75
2023-03-13T09:06:00.544Z,151195.09
2023-03-13T09:08:27.723Z,151184.94
2023-03-13T09:11:00.727Z,151159.66
2023-03-13T09:13:28.126Z,151167.25
2023-03-13T09:16:01.963Z,151157.16
2023-03-13T09:18:28.792Z,151143.22
2023-03-13T09:20:55.064Z,151138.19
2023-03-13T09:23:21.999Z,151134.34
2023-03-13T09:25:51.211Z,151129.31
2023-03-13T09:28:17.986Z,151121.72
2023-03-13T09:30:43.964Z,151129.31
2023-03-13T09:33:09.969Z,151129.31
2023-03-13T09:35:38.707Z,151147.00
2023-03-13T09:38:04.861Z,151107.81
2023-03-13T09:40:39.406Z,151097.66
2023-03-13T09:43:16.618Z,151111.59
2023-03-13T09:45:46.339Z,151096.41
2023-03-13T09:48:25.720Z,151124.25
2023-03-13T09:51:02.958Z,151135.66
2023-03-13T09:53:51.644Z,151149.53
2023-03-13T09:56:22.057Z,151157.16
2023-03-13T09:58:57.676Z,151144.47
2023-03-13T10:01:27.685Z,151131.81
2023-03-13T10:04:21.156Z,151128.03
2023-03-13T10:06:48.471Z,151147.00
2023-03-13T10:09:20.240Z,151164.72
2023-03-13T10:11:59.474Z,151186.22
2023-03-13T10:14:42.522Z,151183.69
2023-03-13T10:17:35.694Z,151169.75
2023-03-13T10:20:35.008Z,151174.84
2023-03-13T10:23:15.234Z,151177.38
2023-03-13T10:25:41.193Z,151163.47
2023-03-13T10:28:12.159Z,151196.34
2023-03-13T10:30:45.766Z,151289.97
2023-03-13T10:33:11.502Z,151344.38
2023-03-13T10:35:40.581Z,151346.91
2023-03-13T10:38:12.609Z,151326.66
2023-03-13T10:40:39.119Z,151298.84
2023-03-13T10:43:12.780Z,151321.63
2023-03-13T10:45:38.653Z,151346.91
2023-03-13T10:48:18.239Z,151338.06
2023-03-13T10:50:47.577Z,151334.28
2023-03-13T10:53:33.244Z,151420.38
2023-03-13T10:56:12.741Z,151586.28
2023-03-13T10:58:45.298Z,151768.72
2023-03-13T11:01:28.139Z,151789.00
2023-03-13T11:03:56.690Z,151685.03
2023-03-13T11:06:34.428Z,151583.69
2023-03-13T11:09:05.263Z,151538.13
2023-03-13T11:11:46.951Z,151541.91
2023-03-13T11:14:18.180Z,151606.53
2023-03-13T11:17:10.954Z,151635.63
2023-03-13T11:20:03.293Z,151612.84
2023-03-13T11:22:41.785Z,151666.03
2023-03-13T11:25:22.168Z,151633.09
2023-03-13T11:28:16.619Z,151554.59
2023-03-13T11:31:01.220Z,151554.59
2023-03-13T17:03:23.713Z,151587.53
2023-03-13T17:05:49.647Z,151546.97
2023-03-13T17:08:15.585Z,151541.91
2023-03-13T17:10:41.486Z,151507.72
2023-03-13T17:13:07.467Z,151502.69
2023-03-13T17:15:33.516Z,151511.50
2023-03-13T17:17:59.502Z,151509.00
2023-03-13T17:20:28.210Z,151502.69
2023-03-13T17:22:55.739Z,151481.16
2023-03-13T17:25:22.124Z,151501.41
2023-03-13T17:27:48.067Z,151487.47
2023-03-13T17:30:24.323Z,151488.75
2023-03-13T17:32:50.593Z,151481.16
2023-03-13T17:35:18.160Z,151445.72
2023-03-13T17:37:44.281Z,151479.91
2023-03-13T17:40:13.730Z,151492.53
2023-03-13T17:42:47.978Z,151459.66
2023-03-13T17:45:14.464Z,151444.44
2023-03-13T17:47:41.094Z,151431.78
2023-03-13T17:50:26.841Z,151425.47
2023-03-13T17:52:53.380Z,151415.31
2023-03-13T17:55:19.164Z,151428.00
2023-03-13T17:57:47.212Z,151414.06
2023-03-13T18:00:13.535Z,151422.88
2023-03-13T18:02:39.582Z,151386.19
2023-03-13T18:05:06.190Z,151382.41
2023-03-13T18:07:32.216Z,151381.13
2023-03-13T18:09:58.382Z,151365.94
2023-03-13T18:12:24.285Z,151352.00
2023-03-13T18:14:50.450Z,151364.69
2023-03-13T18:17:19.750Z,151372.28
2023-03-13T18:19:47.701Z,151355.84
2023-03-13T18:22:16.671Z,151340.59
2023-03-13T18:24:43.095Z,151349.44
2023-03-13T18:27:20.479Z,151338.06
2023-03-13T18:29:48.592Z,151320.34
2023-03-13T18:32:16.704Z,151338.06
2023-03-13T18:34:43.021Z,151335.53
2023-03-13T18:37:15.332Z,151326.66
2023-03-13T18:39:41.214Z,151305.16
2023-03-13T18:42:09.617Z,151312.72
2023-03-13T18:44:35.943Z,151297.59
2023-03-13T18:47:13.025Z,151308.94
2023-03-13T18:49:39.168Z,151303.91
2023-03-13T18:52:05.281Z,151307.69
2023-03-13T18:54:31.182Z,151310.22
2023-03-13T18:56:57.131Z,151306.41
2023-03-13T18:59:23.203Z,151317.84
2023-03-13T19:01:50.301Z,151301.38
2023-03-13T19:04:16.680Z,151319.09
2023-03-13T19:06:45.160Z,151292.50
2023-03-13T19:09:41.610Z,151296.28
2023-03-13T19:12:03.157Z,151308.94
2023-03-13T19:14:29.293Z,151338.06
2023-03-13T19:16:56.851Z,151348.16
2023-03-13T19:19:24.654Z,151303.91
2023-03-13T19:21:56.636Z,151288.72
2023-03-13T19:24:25.827Z,151311.47
2023-03-13T19:26:58.132Z,151302.63
2023-03-13T19:29:26.357Z,151278.56
2023-03-13T19:31:53.857Z,151291.22
2023-03-13T19:34:19.932Z,151319.09
2023-03-13T19:36:47.634Z,151308.94
2023-03-13T19:39:19.158Z,151292.50
2023-03-13T19:41:47.584Z,151302.63
2023-03-13T19:44:14.253Z,151297.59
2023-03-13T19:46:42.737Z,151287.44
2023-03-13T19:49:17.092Z,151286.19
2023-03-13T19:51:43.415Z,151287.44
2023-03-13T19:54:10.551Z,151282.41
2023-03-13T19:56:38.743Z,151298.84
2023-03-13T19:59:09.655Z,151291.22
2023-03-13T20:01:35.758Z,151271.00
2023-03-13T20:04:01.844Z,151249.50
2023-03-13T20:06:33.165Z,151238.09
2023-03-13T20:09:01.841Z,151233.03
2023-03-13T20:11:28.646Z,151235.56
2023-03-13T20:13:55.483Z,151222.91
2023-03-13T20:16:24.748Z,151222.91
2023-03-13T20:18:51.474Z,151216.59
2023-03-13T20:21:18.250Z,151197.63
2023-03-13T20:23:46.782Z,151165.97
2023-03-13T20:26:14.869Z,151191.31
2023-03-13T20:28:43.678Z,151181.16
2023-03-13T20:31:10.253Z,151147.00
2023-03-13T20:33:36.914Z,151148.28
2023-03-13T20:36:06.705Z,151141.97
2023-03-13T20:38:34.163Z,151144.47
2023-03-13T20:41:00.845Z,151148.28
2023-03-13T20:43:27.877Z,151143.22
2023-03-13T20:45:54.008Z,151123.00
2023-03-13T20:48:20.991Z,151140.69
2023-03-13T20:50:51.906Z,151144.47
2023-03-13T20:53:18.106Z,151136.91
2023-03-13T20:55:44.160Z,151136.91
2023-03-13T20:58:10.426Z,151119.22
2023-03-13T21:00:36.298Z,151123.00
2023-03-13T21:03:02.308Z,151138.19
2023-03-13T21:05:28.650Z,151136.91
2023-03-13T21:07:54.615Z,151139.44
2023-03-13T21:10:20.622Z,151104.03
2023-03-13T21:12:46.539Z,151086.31
2023-03-13T21:15:12.781Z,151095.16
2023-03-13T21:17:39.156Z,151093.88
2023-03-13T21:20:12.903Z,151116.63
2023-03-13T21:22:40.277Z,151069.88
2023-03-13T21:25:10.192Z,151050.91
2023-03-13T21:27:36.781Z,151052.19
2023-03-13T21:30:09.524Z,151048.38
2023-03-13T21:32:37.225Z,151059.75
2023-03-13T21:35:04.711Z,151055.94
2023-03-13T21:37:30.987Z,151028.16
2023-03-13T21:39:57.016Z,151030.69
2023-03-13T21:42:23.177Z,151028.16
2023-03-13T21:44:49.028Z,151007.91
2023-03-13T21:47:26.369Z,150994.03
2023-03-13T21:49:53.787Z,150994.03
2023-03-13T21:52:20.752Z,150978.84
2023-03-13T21:54:46.762Z,151010.47
2023-03-13T21:57:12.609Z,150968.72
2023-03-13T21:59:38.634Z,150972.50
2023-03-13T22:02:04.828Z,150966.19
2023-03-13T22:04:30.750Z,150958.63
2023-03-13T22:06:56.573Z,150964.94
2023-03-13T22:09:22.667Z,150963.66
2023-03-13T22:11:48.477Z,150957.38
2023-03-13T22:14:14.358Z,150967.44
2023-03-13T22:16:40.260Z,150959.88
2023-03-13T22:19:06.211Z,150939.66
2023-03-13T22:21:32.299Z,150937.09
2023-03-13T22:23:58.140Z,150958.63
2023-03-13T22:26:24.190Z,150953.53
2023-03-13T22:28:50.496Z,150966.19
2023-03-13T22:31:16.418Z,150983.88
2023-03-13T22:33:42.237Z,150991.50
2023-03-13T22:36:09.129Z,151000.31
2023-03-13T22:38:38.736Z,150988.94
2023-03-13T22:41:07.653Z,151000.31
2023-03-13T22:43:34.134Z,150996.53
2023-03-13T22:46:00.335Z,151023.06
2023-03-13T22:48:26.668Z,151015.50
2023-03-13T22:51:13.090Z,151007.91
2023-03-13T22:53:40.644Z,151031.94
2023-03-13T22:56:09.232Z,151025.59
2023-03-13T22:58:35.750Z,151020.56
2023-03-13T23:01:05.538Z,151005.38
2023-03-13T23:03:31.443Z,151018.03
2023-03-13T23:05:57.200Z,150988.94
2023-03-13T23:08:22.996Z,151001.59
2023-03-13T23:10:49.016Z,150985.16
2023-03-13T23:13:15.265Z,150976.31
2023-03-13T23:15:55.725Z,150966.19
2023-03-13T23:18:23.705Z,150954.78
2023-03-13T23:20:49.560Z,150937.09
2023-03-13T23:23:15.491Z,150954.78
2023-03-13T23:25:41.344Z,150964.94
2023-03-13T23:28:07.180Z,150947.22
2023-03-13T23:30:33.295Z,150957.38
2023-03-13T23:32:59.293Z,150945.97
2023-03-13T23:35:25.345Z,150906.78
2023-03-13T23:37:54.231Z,150903.00
2023-03-13T23:40:21.876Z,150903.00
2023-03-13T23:42:49.726Z,150875.13
2023-03-13T23:45:16.612Z,150877.66
2023-03-13T23:47:43.393Z,150895.41
2023-03-13T23:50:14.581Z,150876.41
2023-03-13T23:52:41.073Z,150866.31
2023-03-13T23:55:07.442Z,150851.13
2023-03-13T23:57:33.610Z,150819.53
